Time;durP1;ratioP1;P1;durP2;ratioP2;P2;SDS_P1;SDS_P2;PMS_P1;PMS_P2;Temp;Humidity;BMP_temperature;BMP_pressure;BME280_temperature;BME280_humidity;BME280_pressure;Samples;Min_cycle;Max_cycle;Signal;HPM_P1;HPM_P2
2021/01/28 00:01:59;;;;;;;2.15;1.70;;;8.80;71.40;;;;;;5046813;28;20037;-77
2021/01/28 00:04:24;;;;;;;1.77;1.50;;;8.70;71.30;;;;;;5041566;28;20029;-78
2021/01/28 00:06:50;;;;;;;1.92;1.48;;;8.80;71.40;;;;;;5040745;28;20103;-77
2021/01/28 00:09:15;;;;;;;2.38;1.63;;;8.70;71.30;;;;;;5046387;28;20033;-78
2021/01/28 00:11:41;;;;;;;1.70;1.30;;;8.70;71.40;;;;;;5039430;28;20044;-75
2021/01/28 00:14:06;;;;;;;1.35;1.20;;;8.70;71.40;;;;;;5043321;28;20414;-77
2021/01/28 00:16:32;;;;;;;3.30;1.52;;;8.70;71.40;;;;;;5033244;28;20041;-78
2021/01/28 00:18:57;;;;;;;2.00;1.27;;;8.70;71.50;;;;;;5047925;28;20021;-78
2021/01/28 00:21:23;;;;;;;1.58;1.25;;;8.70;71.50;;;;;;5046783;28;20091;-78
2021/01/28 00:23:49;;;;;;;2.33;1.33;;;8.70;71.50;;;;;;5042798;28;20398;-76
2021/01/28 00:26:14;;;;;;;1.48;1.35;;;8.70;71.50;;;;;;5047429;28;20033;-76
2021/01/28 00:28:40;;;;;;;1.77;1.23;;;8.70;71.50;;;;;;5046754;28;20037;-77
2021/01/28 00:31:05;;;;;;;1.17;1.08;;;8.70;71.50;;;;;;5037554;28;20138;-77
2021/01/28 00:33:31;;;;;;;1.65;1.55;;;8.80;71.70;;;;;;5042489;28;20029;-79
2021/01/28 00:35:57;;;;;;;1.83;1.73;;;8.70;71.60;;;;;;5047769;28;20036;-77
2021/01/28 00:38:27;;;;;;;1.88;1.60;;;8.70;71.60;;;;;;5043078;28;20379;-77
2021/01/28 00:40:53;;;;;;;1.52;1.20;;;8.70;71.70;;;;;;5034977;28;20785;-77
2021/01/28 00:43:20;;;;;;;1.38;1.23;;;8.80;71.70;;;;;;5050907;28;20033;-78
2021/01/28 00:45:46;;;;;;;1.48;1.38;;;8.70;71.60;;;;;;5039544;28;20120;-78
2021/01/28 00:48:12;;;;;;;2.00;1.60;;;8.80;71.60;;;;;;5047993;28;20056;-77
2021/01/28 00:50:39;;;;;;;1.70;1.50;;;8.70;71.50;;;;;;5047518;28;20044;-77
2021/01/28 00:53:05;;;;;;;2.67;1.88;;;8.80;71.60;;;;;;5043540;28;20673;-76
2021/01/28 00:55:31;;;;;;;2.63;2.17;;;8.80;71.60;;;;;;5027061;28;20026;-77
2021/01/28 00:57:56;;;;;;;3.30;2.20;;;8.80;71.60;;;;;;5028104;28;20528;-78
2021/01/28 01:00:27;;;;;;;3.22;2.55;;;8.70;71.50;;;;;;5023812;28;20127;-77
2021/01/28 01:02:53;;;;;;;2.55;2.10;;;8.80;71.60;;;;;;5026715;28;20025;-77
2021/01/28 01:05:21;;;;;;;2.35;2.00;;;8.70;71.50;;;;;;5024445;28;20083;-78
2021/01/28 01:07:47;;;;;;;2.92;1.80;;;8.80;71.60;;;;;;5029782;28;20033;-77
2021/01/28 01:10:49;;;;;;;1.77;1.50;;;8.80;71.60;;;;;;5024854;28;20029;-77
2021/01/28 01:13:18;;;;;;;1.73;1.38;;;8.80;71.70;;;;;;5018459;28;20041;-77
2021/01/28 01:15:44;;;;;;;1.17;1.08;;;8.70;71.50;;;;;;5027703;28;20463;-78
2021/01/28 01:18:11;;;;;;;1.90;1.30;;;8.80;71.50;;;;;;5026468;28;20510;-77
2021/01/28 01:20:37;;;;;;;1.33;1.00;;;8.70;71.50;;;;;;5026089;28;20519;-79
2021/01/28 01:23:04;;;;;;;1.25;0.77;;;8.80;71.80;;;;;;5028886;28;20097;-77
2021/01/28 01:25:29;;;;;;;0.80;0.75;;;8.70;71.50;;;;;;5025062;28;20045;-78
2021/01/28 01:27:55;;;;;;;2.15;1.02;;;8.80;71.50;;;;;;5027992;28;20102;-78
2021/01/28 01:30:22;;;;;;;1.23;0.90;;;8.80;71.50;;;;;;5024994;28;20068;-76
2021/01/28 01:32:48;;;;;;;1.38;1.17;;;8.80;71.50;;;;;;5028090;28;20449;-77
2021/01/28 01:35:16;;;;;;;1.48;1.10;;;8.80;71.90;;;;;;5027511;28;20537;-77
2021/01/28 01:37:42;;;;;;;1.33;0.90;;;8.80;71.30;;;;;;5030305;28;20040;-77
2021/01/28 01:40:11;;;;;;;1.17;0.95;;;8.80;71.40;;;;;;5026462;28;20044;-77
2021/01/28 01:42:40;;;;;;;0.60;0.60;;;8.80;71.30;;;;;;5025643;28;20034;-76
2021/01/28 01:45:07;;;;;;;0.98;0.80;;;8.80;71.30;;;;;;5023866;28;20038;-76
2021/01/28 01:47:42;;;;;;;1.30;1.00;;;8.80;71.40;;;;;;5023997;28;20402;-78
2021/01/28 01:50:45;;;;;;;1.45;1.20;;;8.70;71.30;;;;;;5027682;28;20038;-77
2021/01/28 01:53:20;;;;;;;1.77;1.10;;;8.80;71.40;;;;;;4967977;28;20094;-77
2021/01/28 01:55:52;;;;;;;1.77;1.00;;;8.70;71.20;;;;;;5026578;28;20029;-80
2021/01/28 01:58:32;;;;;;;2.47;0.82;;;8.70;71.20;;;;;;5021602;28;20034;-76
2021/01/28 02:00:58;;;;;;;1.20;1.10;;;8.80;71.20;;;;;;5023115;28;20518;-77
2021/01/28 02:03:27;;;;;;;2.05;1.55;;;8.70;71.10;;;;;;5034368;28;20047;-78
2021/01/28 02:06:01;;;;;;;1.85;1.20;;;8.70;71.00;;;;;;5027001;28;20028;-79
2021/01/28 02:08:27;;;;;;;1.70;1.30;;;8.60;71.00;;;;;;5031126;28;20409;-76
2021/01/28 02:10:52;;;;;;;1.98;1.10;;;8.60;70.90;;;;;;5027774;28;20025;-78
2021/01/28 02:13:18;;;;;;;1.65;1.00;;;8.60;71.00;;;;;;5029023;28;20037;-77
2021/01/28 02:15:44;;;;;;;1.10;0.90;;;8.60;70.90;;;;;;5028764;28;20521;-77
2021/01/28 02:18:09;;;;;;;1.25;1.00;;;8.70;70.90;;;;;;5017590;28;20129;-78
2021/01/28 02:20:56;;;;;;;2.22;1.08;;;8.50;70.70;;;;;;5029128;28;20044;-78
2021/01/28 02:23:39;;;;;;;1.00;0.90;;;8.50;70.70;;;;;;5021025;28;20108;-78
2021/01/28 02:26:06;;;;;;;1.00;0.90;;;8.50;70.60;;;;;;5000045;28;20374;-77
2021/01/28 02:28:32;;;;;;;1.27;1.10;;;8.50;70.60;;;;;;5028169;28;20025;-77
2021/01/28 02:30:59;;;;;;;1.85;1.00;;;8.40;70.50;;;;;;5023024;28;20119;-77
2021/01/28 02:33:42;;;;;;;1.60;1.00;;;8.30;70.40;;;;;;5030412;28;20032;-78
2021/01/28 02:36:08;;;;;;;1.20;0.52;;;8.20;70.30;;;;;;5019128;28;20451;-78
2021/01/28 02:38:34;;;;;;;3.20;1.67;;;8.20;70.20;;;;;;5024877;28;20112;-77
2021/01/28 02:41:00;;;;;;;1.27;0.98;;;8.30;70.20;;;;;;5027081;28;20044;-77
2021/01/28 02:43:26;;;;;;;1.67;1.23;;;8.10;70.00;;;;;;5014925;28;20029;-77
2021/01/28 02:46:03;;;;;;;2.90;1.50;;;8.10;69.90;;;;;;5029968;28;20036;-77
2021/01/28 02:48:28;;;;;;;1.77;1.30;;;8.10;69.90;;;;;;5029844;28;20033;-77
2021/01/28 02:50:54;;;;;;;2.00;1.60;;;7.90;69.90;;;;;;5029680;28;20488;-77
2021/01/28 02:53:19;;;;;;;1.88;1.48;;;7.90;70.00;;;;;;5018205;28;20046;-77
2021/01/28 02:55:45;;;;;;;1.63;1.25;;;7.80;70.10;;;;;;5030876;28;20790;-78
2021/01/28 02:58:10;;;;;;;1.60;1.35;;;7.80;70.30;;;;;;5006165;28;20132;-77
2021/01/28 03:00:36;;;;;;;3.92;2.38;;;7.70;70.40;;;;;;5028072;28;20048;-77
2021/01/28 03:03:05;;;;;;;1.98;1.08;;;7.70;70.50;;;;;;5021347;28;20033;-77
2021/01/28 03:05:31;;;;;;;1.25;0.80;;;7.60;70.60;;;;;;5032629;28;20025;-77
2021/01/28 03:07:56;;;;;;;1.13;0.98;;;7.60;70.70;;;;;;5026017;28;20040;-78
2021/01/28 03:10:23;;;;;;;1.25;0.73;;;7.60;70.70;;;;;;5022472;28;20842;-79
2021/01/28 03:12:49;;;;;;;3.05;0.98;;;7.60;70.70;;;;;;5027813;28;20059;-76
2021/01/28 03:15:19;;;;;;;1.25;1.00;;;7.50;70.60;;;;;;5023037;28;20048;-77
2021/01/28 03:17:45;;;;;;;0.77;0.68;;;7.50;70.50;;;;;;5027561;28;20553;-78
2021/01/28 03:20:11;;;;;;;0.70;0.70;;;7.50;70.40;;;;;;5022166;28;20044;-77
2021/01/28 03:22:40;;;;;;;1.25;0.70;;;7.50;70.40;;;;;;5025066;28;20117;-76
2021/01/28 03:25:08;;;;;;;1.75;0.60;;;7.40;70.40;;;;;;5027217;28;20041;-78
2021/01/28 03:27:34;;;;;;;3.15;1.92;;;7.30;70.40;;;;;;5028046;28;20041;-77
2021/01/28 03:30:00;;;;;;;0.90;0.70;;;7.30;70.50;;;;;;5028904;28;20037;-77
2021/01/28 03:32:25;;;;;;;0.73;0.50;;;7.30;70.70;;;;;;5033850;28;20033;-76
2021/01/28 03:34:50;;;;;;;0.73;0.70;;;7.30;70.80;;;;;;5032939;28;20371;-76
2021/01/28 03:37:16;;;;;;;2.35;0.88;;;7.20;70.80;;;;;;5038394;28;20029;-76
2021/01/28 03:39:42;;;;;;;1.10;0.93;;;7.30;70.90;;;;;;5039224;28;20544;-76
2021/01/28 03:42:07;;;;;;;1.25;0.90;;;7.20;70.90;;;;;;5042769;28;20529;-77
2021/01/28 03:44:33;;;;;;;1.20;0.70;;;7.20;71.00;;;;;;5041486;28;20039;-77
2021/01/28 03:46:58;;;;;;;2.25;0.80;;;7.20;71.00;;;;;;5040646;28;20049;-78
2021/01/28 03:49:24;;;;;;;1.10;0.63;;;7.30;71.10;;;;;;5041747;28;20117;-76
2021/01/28 03:51:50;;;;;;;0.80;0.57;;;7.20;71.00;;;;;;5041487;28;20128;-77
2021/01/28 03:54:15;;;;;;;1.33;0.93;;;7.20;70.90;;;;;;5039304;28;20033;-78
2021/01/28 03:56:41;;;;;;;1.10;0.88;;;7.20;70.90;;;;;;5042642;28;20115;-77
2021/01/28 03:59:06;;;;;;;1.52;0.73;;;7.10;70.80;;;;;;5026494;28;20112;-77
2021/01/28 04:01:32;;;;;;;2.35;0.77;;;7.20;70.80;;;;;;5013954;28;20041;-76
2021/01/28 04:03:58;;;;;;;0.82;0.70;;;7.10;70.60;;;;;;5029709;28;20490;-76
2021/01/28 04:06:23;;;;;;;1.02;0.65;;;7.10;70.50;;;;;;5043231;28;20051;-77
2021/01/28 04:08:49;;;;;;;0.90;0.73;;;7.00;70.40;;;;;;5037573;28;20094;-77
2021/01/28 04:11:14;;;;;;;0.82;0.70;;;7.00;70.40;;;;;;5043118;28;20083;-78
2021/01/28 04:13:40;;;;;;;1.67;1.10;;;7.00;70.40;;;;;;5042392;28;20033;-77
2021/01/28 04:16:05;;;;;;;1.75;0.73;;;7.00;70.50;;;;;;5037866;28;20465;-77
2021/01/28 04:18:30;;;;;;;1.35;0.85;;;6.90;70.50;;;;;;5037982;28;20032;-77
2021/01/28 04:20:56;;;;;;;5.07;1.10;;;6.80;70.60;;;;;;5043628;28;20044;-77
2021/01/28 04:23:21;;;;;;;1.50;0.93;;;6.90;70.80;;;;;;5036638;28;20498;-78
2021/01/28 04:25:47;;;;;;;0.52;0.50;;;6.90;71.00;;;;;;5039245;28;20028;-76
2021/01/28 04:28:13;;;;;;;1.40;0.90;;;6.80;71.00;;;;;;5044479;28;20130;-77
2021/01/28 04:30:38;;;;;;;1.48;1.05;;;6.90;71.10;;;;;;5040325;28;20037;-77
2021/01/28 04:33:05;;;;;;;1.27;0.88;;;6.80;71.00;;;;;;5044022;28;20036;-77
2021/01/28 04:35:31;;;;;;;0.93;0.85;;;6.90;71.10;;;;;;5041721;28;20495;-78
2021/01/28 04:37:56;;;;;;;0.90;0.63;;;6.90;71.00;;;;;;5038216;28;20033;-76
2021/01/28 04:40:30;;;;;;;2.30;1.00;;;6.80;70.90;;;;;;5024905;28;20025;-78
2021/01/28 04:42:58;;;;;;;0.80;0.68;;;6.90;70.90;;;;;;5027976;28;20040;-77
2021/01/28 04:45:26;;;;;;;1.70;0.90;;;6.80;70.70;;;;;;5034642;28;20460;-78
2021/01/28 04:47:57;;;;;;;0.90;0.70;;;6.80;70.70;;;;;;5027549;28;20132;-77
2021/01/28 04:50:29;;;;;;;1.10;1.00;;;6.70;70.60;;;;;;5037147;28;20037;-77
2021/01/28 04:53:01;;;;;;;1.17;0.82;;;6.70;70.60;;;;;;5023754;28;20147;-78
2021/01/28 04:55:48;;;;;;;1.05;0.95;;;6.70;70.60;;;;;;5039800;28;20478;-76
2021/01/28 04:58:15;;;;;;;1.98;1.00;;;6.70;70.90;;;;;;5034322;28;20548;-76
2021/01/28 05:00:40;;;;;;;1.17;1.05;;;6.60;70.70;;;;;;5040938;28;20037;-77
2021/01/28 05:03:21;;;;;;;1.80;1.02;;;6.60;70.80;;;;;;5042590;28;20539;-78
2021/01/28 05:05:49;;;;;;;;;;;6.60;71.00;;;;;;5026662;28;20055;-75
2021/01/28 05:08:15;;;;;;;1.55;1.20;;;6.60;71.30;;;;;;5038842;28;20384;-78
2021/01/28 05:10:45;;;;;;;1.40;1.00;;;6.60;70.80;;;;;;5041859;28;20037;-78
2021/01/28 05:13:12;;;;;;;1.63;1.02;;;6.70;71.00;;;;;;5043213;28;20752;-76
2021/01/28 05:15:41;;;;;;;2.15;1.38;;;6.70;71.00;;;;;;5042029;28;20498;-79
2021/01/28 05:18:22;;;;;;;1.75;1.20;;;6.60;71.00;;;;;;5029596;28;20057;-78
2021/01/28 05:20:47;;;;;;;2.13;1.30;;;6.50;71.00;;;;;;5023447;28;20021;-77
2021/01/28 05:23:41;;;;;;;1.33;0.82;;;6.60;71.00;;;;;;5033950;28;20045;-78
2021/01/28 05:26:45;;;;;;;1.50;0.90;;;6.70;71.30;;;;;;5029865;28;20036;-76
2021/01/28 05:29:21;;;;;;;1.50;1.02;;;6.60;71.30;;;;;;4943355;29;20049;-79
2021/01/28 05:31:48;;;;;;;1.00;0.80;;;6.50;71.00;;;;;;4948615;29;20031;-76
2021/01/28 05:34:19;;;;;;;1.40;0.85;;;6.50;71.00;;;;;;4995529;28;20025;-78
2021/01/28 05:36:56;;;;;;;1.52;0.88;;;6.50;71.10;;;;;;5046603;28;20088;-78
2021/01/28 05:39:27;;;;;;;1.08;0.90;;;6.60;71.30;;;;;;5041742;28;20476;-78
2021/01/28 05:42:23;;;;;;;1.65;0.98;;;6.50;71.10;;;;;;5031005;28;20087;-77
2021/01/28 05:44:48;;;;;;;1.30;1.00;;;6.50;71.20;;;;;;5038627;28;20052;-79
2021/01/28 05:47:27;;;;;;;1.17;1.08;;;6.50;71.00;;;;;;5034875;28;20522;-78
2021/01/28 05:50:13;;;;;;;1.55;0.95;;;6.50;71.00;;;;;;5033392;28;20060;-79
2021/01/28 05:52:38;;;;;;;1.15;0.85;;;6.50;71.10;;;;;;5040922;28;20046;-78
2021/01/28 05:55:12;;;;;;;2.20;1.52;;;6.50;70.90;;;;;;5050864;28;20060;-75
2021/01/28 05:57:54;;;;;;;2.50;1.42;;;6.50;70.90;;;;;;5046956;28;20041;-78
2021/01/28 06:00:25;;;;;;;1.27;0.85;;;6.50;70.90;;;;;;5029222;28;20037;-79
2021/01/28 06:03:31;;;;;;;2.00;0.95;;;6.40;70.80;;;;;;5002830;28;20571;-78
2021/01/28 06:06:23;;;;;;;1.45;0.80;;;6.40;70.90;;;;;;5006791;28;20476;-78
2021/01/28 06:09:18;;;;;;;1.30;0.85;;;6.40;70.80;;;;;;5043234;28;20120;-78
2021/01/28 06:12:13;;;;;;;1.13;0.80;;;6.30;70.80;;;;;;5046460;28;20030;-79
2021/01/28 06:15:02;;;;;;;2.30;1.00;;;6.30;70.80;;;;;;5050324;28;20041;-79
2021/01/28 06:17:53;;;;;;;0.73;0.73;;;6.30;71.00;;;;;;5050580;28;20120;-76
2021/01/28 06:20:36;;;;;;;2.08;0.98;;;6.30;71.00;;;;;;5046863;28;20120;-78
2021/01/28 06:23:39;;;;;;;1.45;0.80;;;6.30;71.10;;;;;;5034156;28;20096;-79
2021/01/28 06:26:07;;;;;;;1.50;1.02;;;6.20;71.10;;;;;;5019958;28;20339;-78
2021/01/28 06:28:58;;;;;;;0.90;0.70;;;6.20;70.90;;;;;;5052779;28;20380;-80
2021/01/28 06:31:27;;;;;;;1.10;0.80;;;6.20;71.00;;;;;;5048454;28;20460;-79
2021/01/28 06:34:14;;;;;;;0.80;0.70;;;6.20;70.90;;;;;;5036254;28;20513;-79
2021/01/28 06:36:43;;;;;;;1.05;0.75;;;6.20;70.90;;;;;;5050180;28;20032;-81
2021/01/28 06:39:18;;;;;;;0.70;0.65;;;6.20;70.90;;;;;;5040268;28;20040;-79
2021/01/28 06:41:57;;;;;;;2.15;0.77;;;6.20;70.90;;;;;;5027862;28;20509;-77
2021/01/28 06:44:50;;;;;;;1.55;0.80;;;6.20;70.90;;;;;;5019356;28;20037;-79
2021/01/28 06:47:24;;;;;;;0.70;0.60;;;6.10;70.80;;;;;;5022087;28;20029;-78
2021/01/28 06:50:10;;;;;;;1.80;1.25;;;6.10;70.80;;;;;;5032283;28;20502;-77
2021/01/28 06:52:54;;;;;;;0.93;0.73;;;6.10;70.80;;;;;;5030047;28;20541;-78
2021/01/28 06:55:23;;;;;;;1.02;0.80;;;6.10;70.70;;;;;;5024502;28;20050;-79
2021/01/28 06:57:51;;;;;;;1.30;0.90;;;6.10;70.60;;;;;;5034042;28;20052;-78
2021/01/28 07:00:36;;;;;;;0.98;0.77;;;6.00;70.60;;;;;;5023999;28;20044;-79
2021/01/28 07:03:22;;;;;;;0.77;0.65;;;6.00;70.80;;;;;;5020294;28;20056;-80
2021/01/28 07:05:56;;;;;;;1.23;0.90;;;6.00;70.70;;;;;;5017897;28;20029;-81
2021/01/28 07:08:31;;;;;;;0.73;0.68;;;6.00;70.70;;;;;;5015945;28;20157;-78
2021/01/28 07:10:57;;;;;;;1.00;0.77;;;5.90;70.70;;;;;;5019026;28;20029;-76
2021/01/28 07:13:27;;;;;;;1.50;0.88;;;5.90;70.70;;;;;;5020060;28;20026;-78
2021/01/28 07:16:00;;;;;;;1.17;1.00;;;5.90;70.70;;;;;;5002896;28;20033;-79
2021/01/28 07:18:44;;;;;;;1.33;1.00;;;5.90;70.70;;;;;;5018629;28;20038;-78
2021/01/28 07:21:31;;;;;;;0.82;0.73;;;5.90;70.60;;;;;;5026279;28;20055;-84
2021/01/28 07:24:29;;;;;;;2.55;0.85;;;5.80;71.20;;;;;;5018158;28;20576;-79
2021/01/28 07:26:56;;;;;;;1.77;0.90;;;5.90;71.50;;;;;;5018854;28;20267;-82
2021/01/28 07:29:44;;;;;;;1.10;0.75;;;5.90;71.20;;;;;;5031255;28;20025;-82
2021/01/28 07:32:31;;;;;;;2.42;1.40;;;5.90;71.20;;;;;;5026509;28;20052;-80
2021/01/28 07:35:35;;;;;;;2.78;1.05;;;5.90;70.90;;;;;;5025892;28;20509;-82
2021/01/28 07:38:28;;;;;;;2.38;2.00;;;5.90;71.10;;;;;;5018057;28;20042;-80
2021/01/28 07:41:09;;;;;;;2.78;1.67;;;5.90;71.00;;;;;;5020127;28;20026;-82
2021/01/28 07:43:44;;;;;;;1.55;1.20;;;5.80;70.80;;;;;;5024337;28;20026;-81
2021/01/28 07:46:36;;;;;;;2.25;1.27;;;5.80;70.80;;;;;;5018222;28;20025;-81
2021/01/28 07:49:22;;;;;;;1.35;1.17;;;5.80;70.90;;;;;;5020653;28;20037;-81
2021/01/28 07:52:12;;;;;;;2.05;1.15;;;5.80;70.90;;;;;;5021819;28;20092;-80
2021/01/28 07:54:48;;;;;;;1.17;1.00;;;5.80;70.70;;;;;;5023117;28;20033;-80
2021/01/28 07:57:29;;;;;;;1.42;0.88;;;5.90;70.90;;;;;;5024163;28;20075;-81
2021/01/28 08:00:03;;;;;;;;;;;5.80;70.90;;;;;;5022146;28;20033;-82
2021/01/28 08:02:35;;;;;;;1.42;1.10;;;5.80;71.10;;;;;;5020719;28;19921;-83
2021/01/28 08:05:03;;;;;;;2.17;1.00;;;5.90;70.80;;;;;;5022712;28;20026;-80
2021/01/28 08:07:42;;;;;;;1.40;1.10;;;5.80;70.90;;;;;;5022274;28;20030;-80
2021/01/28 08:10:27;;;;;;;2.10;1.42;;;5.80;70.90;;;;;;5020683;28;20025;-82
2021/01/28 08:13:13;;;;;;;1.40;1.10;;;5.80;71.10;;;;;;5022436;28;20033;-79
2021/01/28 08:15:47;;;;;;;2.33;1.58;;;5.80;70.90;;;;;;5014927;28;20116;-84
2021/01/28 08:18:20;;;;;;;3.00;1.42;;;5.80;71.40;;;;;;5019923;28;20094;-81
2021/01/28 08:20:46;;;;;;;1.83;1.50;;;5.80;71.50;;;;;;5015747;28;20449;-77
2021/01/28 08:23:26;;;;;;;1.52;1.38;;;5.90;71.40;;;;;;5017889;28;20041;-83
2021/01/28 08:25:56;;;;;;;1.20;1.10;;;5.90;71.90;;;;;;5030568;28;20390;-80
2021/01/28 08:28:23;;;;;;;;;;;5.70;71.10;;;;;;5023975;28;20030;-81
2021/01/28 08:30:48;;;;;;;5.35;3.88;;;5.90;71.60;;;;;;5025508;28;19916;-80
2021/01/28 08:33:23;;;;;;;11.52;7.90;;;5.90;70.90;;;;;;5018341;28;20022;-82
2021/01/28 08:35:54;;;;;;;12.80;9.45;;;5.90;71.00;;;;;;5022575;28;20026;-81
2021/01/28 08:38:30;;;;;;;9.65;7.20;;;5.90;71.00;;;;;;5021643;28;20033;-83
2021/01/28 08:41:16;;;;;;;7.40;4.60;;;6.00;71.10;;;;;;5026290;28;20419;-83
2021/01/28 08:43:43;;;;;;;5.43;4.47;;;6.00;71.20;;;;;;5024133;28;20037;-83
2021/01/28 08:46:21;;;;;;;8.40;5.78;;;6.00;71.10;;;;;;5023933;28;20030;-81
2021/01/28 08:48:48;;;;;;;3.83;2.75;;;6.00;71.10;;;;;;5028760;28;20049;-82
2021/01/28 08:51:23;;;;;;;2.13;1.90;;;6.00;71.00;;;;;;5024661;28;20089;-82
2021/01/28 08:54:03;;;;;;;3.35;2.83;;;6.10;71.00;;;;;;5026330;28;20034;-82
2021/01/28 08:56:34;;;;;;;2.85;2.17;;;5.90;70.90;;;;;;5025958;28;20034;-83
2021/01/28 08:59:11;;;;;;;2.38;1.52;;;6.00;70.80;;;;;;5026911;28;20030;-80
2021/01/28 09:01:41;;;;;;;1.77;1.35;;;6.10;70.80;;;;;;5024868;28;20064;-83
2021/01/28 09:04:24;;;;;;;3.38;1.75;;;6.00;70.60;;;;;;5035808;28;20028;-81
2021/01/28 09:06:50;;;;;;;2.50;1.50;;;6.10;70.50;;;;;;5025216;28;20025;-81
2021/01/28 09:09:17;;;;;;;2.63;1.60;;;6.00;70.40;;;;;;5019448;28;20402;-83
2021/01/28 09:11:43;;;;;;;2.03;1.65;;;6.00;70.50;;;;;;5022594;28;20073;-82
2021/01/28 09:14:16;;;;;;;2.50;1.67;;;6.00;70.60;;;;;;5027725;28;20037;-84
2021/01/28 09:16:59;;;;;;;1.90;1.70;;;6.10;70.70;;;;;;5029552;28;20043;-82
2021/01/28 09:19:25;;;;;;;2.25;1.88;;;5.90;70.60;;;;;;5026216;28;20048;-82
2021/01/28 09:22:04;;;;;;;2.60;1.55;;;6.00;70.60;;;;;;5027762;28;20044;-81
2021/01/28 09:24:45;;;;;;;1.98;1.73;;;6.00;70.70;;;;;;5024464;28;20170;-83
2021/01/28 09:27:21;;;;;;;1.98;1.63;;;5.90;70.70;;;;;;5026578;28;20030;-83
2021/01/28 09:29:49;;;;;;;2.10;1.75;;;6.00;70.80;;;;;;5012729;28;20034;-82
2021/01/28 09:32:17;;;;;;;1.90;1.70;;;6.00;70.80;;;;;;5029826;28;20105;-82
2021/01/28 09:34:43;;;;;;;2.58;2.10;;;6.00;70.80;;;;;;5031258;28;20093;-83
2021/01/28 09:37:18;;;;;;;2.50;2.30;;;6.10;70.90;;;;;;5029607;28;20164;-82
2021/01/28 09:39:51;;;;;;;2.78;2.20;;;6.10;71.30;;;;;;5012231;28;20402;-83
2021/01/28 09:42:32;;;;;;;2.75;2.35;;;6.00;70.60;;;;;;5027897;28;20565;-84
2021/01/28 09:45:08;;;;;;;2.58;2.35;;;6.10;70.60;;;;;;5032169;28;20034;-83
2021/01/28 09:47:35;;;;;;;3.78;2.53;;;6.10;70.60;;;;;;5033358;28;20034;-82
2021/01/28 09:50:07;;;;;;;4.03;2.42;;;6.20;70.70;;;;;;5036883;28;20049;-81
2021/01/28 09:52:36;;;;;;;2.47;2.00;;;6.10;70.60;;;;;;5031751;28;20038;-81
2021/01/28 09:55:13;;;;;;;2.53;2.00;;;6.10;70.60;;;;;;5032567;28;20030;-81
2021/01/28 09:57:40;;;;;;;3.83;2.60;;;6.10;70.80;;;;;;5031380;28;20034;-83
2021/01/28 10:00:07;;;;;;;2.63;2.17;;;6.20;70.90;;;;;;5031676;28;20145;-82
2021/01/28 10:02:38;;;;;;;3.90;2.95;;;6.10;71.40;;;;;;5031633;28;20077;-82
2021/01/28 10:05:05;;;;;;;3.35;3.00;;;6.10;70.80;;;;;;5032423;28;20125;-82
2021/01/28 10:07:31;;;;;;;4.03;3.25;;;6.20;70.70;;;;;;5032051;28;20042;-82
2021/01/28 10:09:56;;;;;;;3.55;2.80;;;6.20;70.60;;;;;;5036242;28;20537;-83
2021/01/28 10:12:25;;;;;;;3.80;2.83;;;6.20;70.60;;;;;;5033172;28;20034;-83
2021/01/28 10:14:51;;;;;;;3.28;2.70;;;6.20;70.40;;;;;;5033441;28;20044;-82
2021/01/28 10:17:17;;;;;;;3.53;2.60;;;6.20;70.50;;;;;;5033391;28;20132;-83
2021/01/28 10:19:44;;;;;;;3.97;3.35;;;6.20;70.40;;;;;;5023441;28;20057;-82
2021/01/28 10:22:15;;;;;;;3.70;2.90;;;6.30;70.40;;;;;;5030323;28;20036;-81
2021/01/28 10:24:41;;;;;;;3.35;2.65;;;6.20;70.10;;;;;;5023044;28;20047;-84
2021/01/28 10:27:08;;;;;;;2.95;2.47;;;6.30;70.20;;;;;;5030975;28;20085;-81
2021/01/28 10:29:34;;;;;;;2.65;2.45;;;6.30;70.30;;;;;;5030094;28;20030;-81
2021/01/28 10:32:00;;;;;;;3.67;3.00;;;6.30;70.40;;;;;;5031674;28;20036;-80
2021/01/28 10:34:25;;;;;;;3.38;2.63;;;6.30;70.60;;;;;;5001662;28;20029;-80
2021/01/28 10:36:51;;;;;;;3.45;2.88;;;6.30;70.50;;;;;;5018395;28;20033;-77
2021/01/28 10:39:17;;;;;;;3.15;2.70;;;6.30;70.70;;;;;;5016177;28;20125;-76
2021/01/28 10:41:46;;;;;;;5.15;2.88;;;6.40;70.70;;;;;;5018265;28;20030;-76
2021/01/28 10:44:11;;;;;;;2.40;2.20;;;6.30;70.50;;;;;;5020141;28;20026;-78
2021/01/28 10:46:37;;;;;;;2.30;1.98;;;6.40;70.60;;;;;;5019644;28;20049;-76
2021/01/28 10:49:02;;;;;;;2.85;2.53;;;6.50;70.70;;;;;;5018521;28;20026;-76
2021/01/28 10:51:28;;;;;;;3.63;2.67;;;6.50;70.70;;;;;;5019398;28;20034;-77
2021/01/28 10:53:53;;;;;;;3.22;2.65;;;6.50;70.60;;;;;;5018321;28;20037;-74
2021/01/28 10:56:19;;;;;;;2.35;2.10;;;6.50;70.40;;;;;;5020585;28;20039;-75
2021/01/28 10:58:44;;;;;;;2.40;2.20;;;6.50;70.40;;;;;;5020865;28;20510;-76
2021/01/28 11:01:10;;;;;;;3.28;2.83;;;6.60;70.50;;;;;;5017181;28;20087;-75
2021/01/28 11:03:36;;;;;;;3.45;2.58;;;6.60;71.00;;;;;;5017258;28;20112;-76
2021/01/28 11:06:02;;;;;;;2.60;2.40;;;6.60;70.30;;;;;;5021072;28;20080;-77
2021/01/28 11:08:27;;;;;;;3.28;2.65;;;6.60;70.30;;;;;;5016406;28;20407;-76
2021/01/28 11:10:54;;;;;;;2.70;2.30;;;6.60;70.20;;;;;;5016950;28;20021;-77
2021/01/28 11:13:19;;;;;;;3.72;2.72;;;6.60;70.20;;;;;;5013958;28;20137;-76
2021/01/28 11:15:45;;;;;;;2.65;2.25;;;6.70;70.20;;;;;;5022115;28;20128;-74
2021/01/28 11:18:11;;;;;;;3.08;2.65;;;6.70;70.10;;;;;;5031556;28;20501;-77
2021/01/28 11:20:37;;;;;;;3.42;2.67;;;6.70;69.80;;;;;;5044081;28;20036;-75
2021/01/28 11:23:03;;;;;;;3.45;2.85;;;6.70;69.80;;;;;;5042355;28;20060;-76
2021/01/28 11:25:29;;;;;;;5.22;2.83;;;6.70;69.70;;;;;;5043100;28;20021;-77
2021/01/28 11:27:55;;;;;;;3.47;2.90;;;6.80;69.80;;;;;;5043351;28;20071;-77
2021/01/28 11:30:27;;;;;;;3.40;2.70;;;6.70;69.60;;;;;;5043315;28;20037;-78
2021/01/28 11:32:53;;;;;;;3.15;2.63;;;6.70;69.30;;;;;;5027645;28;20112;-76
2021/01/28 11:35:22;;;;;;;2.83;2.40;;;6.70;69.30;;;;;;5045812;28;20044;-77
2021/01/28 11:37:48;;;;;;;3.65;2.80;;;6.70;69.40;;;;;;5039143;28;20565;-74
2021/01/28 11:40:17;;;;;;;2.45;1.92;;;6.70;69.60;;;;;;5041819;28;20119;-74
2021/01/28 11:42:42;;;;;;;2.65;2.45;;;6.70;69.70;;;;;;5044489;28;20037;-76
2021/01/28 11:45:09;;;;;;;2.80;2.50;;;6.70;69.70;;;;;;5044995;28;20490;-76
2021/01/28 11:47:35;;;;;;;3.75;2.97;;;6.70;69.70;;;;;;5033226;28;20048;-79
2021/01/28 11:50:00;;;;;;;4.95;2.30;;;6.70;69.70;;;;;;5046272;28;20397;-79
2021/01/28 11:52:26;;;;;;;3.47;2.40;;;6.90;69.80;;;;;;5042044;28;20063;-81
2021/01/28 11:54:51;;;;;;;3.17;2.42;;;6.80;69.70;;;;;;5046862;28;20021;-78
2021/01/28 11:57:17;;;;;;;2.67;2.00;;;6.90;70.30;;;;;;5039614;28;20497;-79
2021/01/28 11:59:42;;;;;;;2.17;1.83;;;6.80;69.80;;;;;;5042225;28;20050;-80
2021/01/28 12:02:08;;;;;;;2.60;1.95;;;6.80;69.90;;;;;;5038975;28;20122;-74
2021/01/28 12:04:33;;;;;;;2.63;2.22;;;6.80;69.90;;;;;;5041672;28;20540;-75
2021/01/28 12:06:59;;;;;;;3.05;2.60;;;6.90;70.00;;;;;;5023312;28;20036;-75
2021/01/28 12:09:24;;;;;;;3.05;2.65;;;6.80;69.90;;;;;;5037671;28;20040;-74
2021/01/28 12:11:50;;;;;;;3.20;2.78;;;6.90;69.90;;;;;;5025426;28;20086;-73
2021/01/28 12:14:15;;;;;;;2.80;2.28;;;6.90;69.90;;;;;;5043537;28;20029;-76
2021/01/28 12:16:42;;;;;;;2.60;2.40;;;7.00;70.00;;;;;;5038157;28;20038;-75
2021/01/28 12:19:08;;;;;;;3.50;2.92;;;7.00;69.90;;;;;;5043618;28;20448;-74
2021/01/28 12:21:34;;;;;;;2.38;2.17;;;7.00;69.70;;;;;;5042192;28;20100;-75
2021/01/28 12:23:59;;;;;;;3.00;2.50;;;7.00;69.70;;;;;;5040475;28;20467;-74
2021/01/28 12:26:25;;;;;;;2.80;2.33;;;7.00;69.70;;;;;;5042965;28;20083;-72
2021/01/28 12:28:51;;;;;;;2.65;2.17;;;7.20;69.80;;;;;;5043178;28;20036;-75
2021/01/28 12:31:16;;;;;;;2.30;2.00;;;7.00;69.70;;;;;;5036665;28;20034;-75
2021/01/28 12:33:42;;;;;;;2.30;1.92;;;7.00;69.70;;;;;;5040571;28;20057;-75
2021/01/28 12:36:09;;;;;;;2.25;1.92;;;7.10;69.80;;;;;;5041486;28;20022;-75
2021/01/28 12:38:34;;;;;;;2.92;2.60;;;7.10;69.80;;;;;;5042259;28;20029;-74
2021/01/28 12:41:00;;;;;;;2.30;2.10;;;7.10;69.60;;;;;;5049594;28;20028;-75
2021/01/28 12:43:26;;;;;;;2.13;1.70;;;7.10;69.60;;;;;;5047537;28;20017;-75
2021/01/28 12:45:52;;;;;;;2.25;2.00;;;7.20;69.70;;;;;;5043827;28;20477;-74
2021/01/28 12:48:18;;;;;;;2.45;2.08;;;7.20;69.70;;;;;;5036464;28;20572;-75
2021/01/28 12:50:43;;;;;;;2.10;1.90;;;7.20;69.60;;;;;;5046689;28;20037;-74
2021/01/28 12:53:09;;;;;;;2.15;1.88;;;7.20;69.50;;;;;;5045047;28;20067;-75
2021/01/28 12:55:34;;;;;;;2.60;2.13;;;7.30;69.40;;;;;;5041015;28;20046;-76
2021/01/28 12:58:00;;;;;;;2.50;1.90;;;7.20;69.30;;;;;;5035861;28;20099;-75
2021/01/28 13:00:26;;;;;;;2.22;1.88;;;7.20;69.20;;;;;;5046709;28;20033;-75
2021/01/28 13:02:52;;;;;;;2.45;1.92;;;7.20;69.20;;;;;;5030766;28;20056;-75
2021/01/28 13:05:18;;;;;;;5.95;4.15;;;7.20;69.10;;;;;;5043862;28;20502;-74
2021/01/28 13:07:43;;;;;;;5.18;3.30;;;7.20;69.10;;;;;;5039186;28;20083;-74
2021/01/28 13:10:09;;;;;;;9.05;6.57;;;7.20;69.00;;;;;;5028099;28;20042;-76
2021/01/28 13:12:35;;;;;;;5.70;4.10;;;7.20;68.90;;;;;;5041391;28;20063;-75
2021/01/28 13:15:06;;;;;;;3.65;3.05;;;7.30;69.10;;;;;;5043006;28;20040;-75
2021/01/28 13:17:31;;;;;;;3.10;2.30;;;7.20;69.10;;;;;;5039658;28;20140;-74